Time;durP1;ratioP1;P1;durP2;ratioP2;P2;SDS_P1;SDS_P2;PMS_P1;PMS_P2;Temp;Humidity;BMP_temperature;BMP_pressure;BME280_temperature;BME280_humidity;BME280_pressure;Samples;Min_cycle;Max_cycle;Signal;HPM_P1;HPM_P2
2023/05/21 00:01:38;;;;;;;7.72;3.55;;;13.90;99.90;;;;;;5108955;27;20540;-81
2023/05/21 00:04:06;;;;;;;8.82;3.85;;;13.90;99.90;;;;;;5122526;27;20039;-81
2023/05/21 00:06:34;;;;;;;8.75;3.70;;;13.90;99.90;;;;;;5095909;27;20035;-81
2023/05/21 00:09:02;;;;;;;6.18;3.47;;;13.90;99.90;;;;;;5128437;27;20082;-81
2023/05/21 00:11:28;;;;;;;7.00;3.15;;;13.90;99.90;;;;;;5143989;27;20043;-81
2023/05/21 00:13:54;;;;;;;8.57;3.20;;;13.80;99.90;;;;;;5128710;27;20047;-81
2023/05/21 00:16:20;;;;;;;9.43;3.67;;;13.80;99.90;;;;;;5125835;27;20079;-81
2023/05/21 00:18:46;;;;;;;6.75;3.53;;;13.80;99.90;;;;;;5128123;27;20141;-81
2023/05/21 00:21:12;;;;;;;5.63;3.47;;;13.80;99.90;;;;;;5127175;27;20119;-81
2023/05/21 00:23:40;;;;;;;9.23;3.38;;;13.80;99.90;;;;;;5148229;27;20047;-81
2023/05/21 00:26:05;;;;;;;10.32;3.58;;;13.80;99.90;;;;;;5131370;27;20123;-81
2023/05/21 00:28:31;;;;;;;7.10;3.60;;;13.80;99.90;;;;;;5130817;27;20050;-81
2023/05/21 00:30:56;;;;;;;7.35;3.58;;;13.80;99.90;;;;;;5129432;27;20054;-81
2023/05/21 00:33:25;;;;;;;8.00;3.42;;;13.80;99.90;;;;;;5127378;27;20043;-81
2023/05/21 00:35:51;;;;;;;9.13;3.90;;;13.80;99.90;;;;;;5124589;27;20068;-81
2023/05/21 00:38:17;;;;;;;6.72;3.15;;;13.80;99.90;;;;;;5121256;27;20398;-80
2023/05/21 00:40:43;;;;;;;12.48;3.83;;;13.80;99.90;;;;;;5130291;27;20038;-80
2023/05/21 00:43:09;;;;;;;10.00;3.70;;;13.80;99.90;;;;;;5127935;27;20058;-81
2023/05/21 00:45:36;;;;;;;11.05;3.63;;;13.80;99.90;;;;;;5126986;27;20050;-80
2023/05/21 00:48:03;;;;;;;6.72;3.47;;;13.80;99.90;;;;;;5110385;27;20039;-81
2023/05/21 00:50:29;;;;;;;6.93;3.75;;;13.80;99.90;;;;;;5124808;27;20162;-80
2023/05/21 00:52:55;;;;;;;11.50;3.50;;;13.80;99.90;;;;;;5121274;27;20066;-80
2023/05/21 00:55:21;;;;;;;8.77;3.72;;;13.80;99.90;;;;;;5130432;27;20068;-80
2023/05/21 00:57:48;;;;;;;9.52;4.22;;;13.80;99.90;;;;;;5149981;27;20074;-80
2023/05/21 01:00:15;;;;;;;8.52;3.50;;;13.80;99.90;;;;;;5129168;27;20050;-80
2023/05/21 01:02:42;;;;;;;9.52;3.75;;;13.80;99.90;;;;;;5130343;27;20054;-80
2023/05/21 01:05:09;;;;;;;8.60;3.60;;;13.80;99.90;;;;;;5130221;27;20035;-80
2023/05/21 01:07:37;;;;;;;12.43;3.80;;;13.80;99.90;;;;;;5129844;27;20508;-80
2023/05/21 01:10:06;;;;;;;7.15;3.78;;;13.80;99.90;;;;;;5130230;27;20115;-80
2023/05/21 01:12:33;;;;;;;7.28;3.72;;;13.80;99.90;;;;;;5129453;27;20049;-81
2023/05/21 01:15:01;;;;;;;9.18;3.80;;;13.70;99.90;;;;;;5129786;27;20037;-80
2023/05/21 01:17:30;;;;;;;9.75;3.97;;;13.70;99.90;;;;;;5129595;27;20057;-80
2023/05/21 01:19:57;;;;;;;7.85;4.20;;;13.70;99.90;;;;;;5107233;27;20035;-80
2023/05/21 01:22:25;;;;;;;7.95;3.80;;;13.70;99.90;;;;;;5106670;27;20050;-80
2023/05/21 01:24:54;;;;;;;8.85;3.75;;;13.70;99.90;;;;;;5126674;27;20083;-81
2023/05/21 01:27:20;;;;;;;7.60;3.63;;;13.70;99.90;;;;;;5118976;27;20046;-80
2023/05/21 01:29:46;;;;;;;8.93;4.35;;;13.70;99.90;;;;;;5113607;27;20047;-80
2023/05/21 01:32:21;;;;;;;9.45;4.00;;;13.70;99.90;;;;;;5136994;27;20466;-80
2023/05/21 01:35:03;;;;;;;8.88;4.10;;;13.70;99.90;;;;;;5116892;27;20043;-80
2023/05/21 01:37:48;;;;;;;8.40;4.33;;;13.70;99.90;;;;;;5148041;27;20042;-80
2023/05/21 01:40:16;;;;;;;9.45;4.18;;;13.70;99.90;;;;;;5129614;27;20437;-80
2023/05/21 01:42:44;;;;;;;9.57;4.65;;;13.70;99.90;;;;;;5125902;27;20027;-79
2023/05/21 01:45:11;;;;;;;8.23;4.50;;;13.70;99.90;;;;;;5122317;27;20494;-80
2023/05/21 01:47:38;;;;;;;8.85;4.40;;;13.60;99.90;;;;;;5125534;27;20057;-80
2023/05/21 01:50:05;;;;;;;10.40;5.15;;;13.60;99.90;;;;;;5123226;27;20047;-80
2023/05/21 01:52:31;;;;;;;9.40;4.65;;;13.70;99.90;;;;;;5129650;27;20038;-80
2023/05/21 01:54:57;;;;;;;14.40;5.32;;;13.70;99.90;;;;;;5129094;27;20409;-80
2023/05/21 01:57:22;;;;;;;7.30;4.55;;;13.60;99.90;;;;;;5129468;27;20056;-80
2023/05/21 01:59:48;;;;;;;10.98;4.55;;;13.60;99.90;;;;;;5129383;27;20047;-80
2023/05/21 02:02:14;;;;;;;11.48;4.88;;;13.60;99.90;;;;;;5146924;27;20047;-80
2023/05/21 02:04:40;;;;;;;9.10;4.97;;;13.60;99.90;;;;;;5148275;27;20058;-80
2023/05/21 02:07:06;;;;;;;8.32;4.78;;;13.60;99.90;;;;;;5130181;27;20051;-80
2023/05/21 02:09:32;;;;;;;8.75;4.97;;;13.60;99.90;;;;;;5128057;27;20078;-80
2023/05/21 02:11:57;;;;;;;12.48;5.10;;;13.50;99.90;;;;;;5113049;27;20086;-80
2023/05/21 02:14:24;;;;;;;14.32;4.68;;;13.50;99.90;;;;;;5147323;27;20078;-80
2023/05/21 02:16:51;;;;;;;8.70;5.43;;;13.50;99.90;;;;;;5128579;27;20050;-80
2023/05/21 02:19:17;;;;;;;8.73;5.00;;;13.40;99.90;;;;;;5129415;27;20074;-80
2023/05/21 02:21:43;;;;;;;10.50;4.80;;;13.40;99.90;;;;;;5111972;27;20130;-80
2023/05/21 02:24:08;;;;;;;9.90;5.05;;;13.30;99.90;;;;;;5128317;27;20057;-80
2023/05/21 02:26:34;;;;;;;9.30;5.63;;;13.30;99.90;;;;;;5125714;28;20386;-80
2023/05/21 02:29:00;;;;;;;10.68;4.72;;;13.20;99.90;;;;;;5121345;27;20455;-80
2023/05/21 02:31:25;;;;;;;9.93;5.78;;;13.10;99.90;;;;;;5146208;27;20133;-80
2023/05/21 02:33:51;;;;;;;10.68;5.20;;;13.00;99.90;;;;;;5126634;27;20043;-80
2023/05/21 02:36:17;;;;;;;8.30;5.03;;;13.00;99.90;;;;;;5112208;27;20070;-80
2023/05/21 02:38:44;;;;;;;9.57;5.00;;;12.90;99.90;;;;;;5126064;27;20461;-80
2023/05/21 02:41:11;;;;;;;11.38;4.70;;;12.90;99.90;;;;;;5125690;28;20047;-79
2023/05/21 02:43:36;;;;;;;10.07;5.22;;;12.80;99.90;;;;;;5138017;27;20047;-80
2023/05/21 02:46:03;;;;;;;14.35;5.55;;;12.80;99.90;;;;;;5128154;27;20046;-80
2023/05/21 02:48:29;;;;;;;10.70;5.70;;;12.80;99.90;;;;;;5139277;27;20043;-80
2023/05/21 02:50:54;;;;;;;10.00;5.75;;;12.80;99.90;;;;;;5132273;27;20561;-80
2023/05/21 02:53:20;;;;;;;10.75;5.63;;;12.70;99.90;;;;;;5132783;27;20039;-80
2023/05/21 02:55:46;;;;;;;10.40;5.85;;;12.70;99.90;;;;;;5129947;27;20089;-80
2023/05/21 02:58:13;;;;;;;10.13;5.43;;;12.80;99.90;;;;;;5141290;27;20078;-80
2023/05/21 03:00:39;;;;;;;11.45;5.18;;;12.80;99.90;;;;;;5150951;27;20539;-79
2023/05/21 03:03:05;;;;;;;15.63;6.10;;;12.80;99.90;;;;;;5132471;27;20458;-80
2023/05/21 03:05:31;;;;;;;11.93;6.57;;;12.80;99.90;;;;;;5150588;27;20049;-80
2023/05/21 03:07:56;;;;;;;11.60;5.72;;;12.80;99.90;;;;;;5151435;27;20051;-80
2023/05/21 03:10:22;;;;;;;9.40;5.47;;;12.80;99.90;;;;;;5132432;27;20038;-80
2023/05/21 03:12:48;;;;;;;13.40;6.60;;;12.80;99.90;;;;;;5132080;27;20065;-80
2023/05/21 03:15:13;;;;;;;14.93;6.10;;;12.80;99.90;;;;;;5128550;27;20122;-80
2023/05/21 03:17:41;;;;;;;10.35;5.88;;;12.80;99.90;;;;;;5145402;27;20094;-80
2023/05/21 03:20:08;;;;;;;11.27;6.00;;;12.80;99.90;;;;;;5132147;27;20035;-80
2023/05/21 03:22:36;;;;;;;16.80;6.22;;;12.80;99.90;;;;;;5114968;27;20047;-80
2023/05/21 03:25:01;;;;;;;12.52;5.82;;;12.80;99.90;;;;;;5115718;27;20381;-79
2023/05/21 03:27:27;;;;;;;11.88;5.68;;;12.80;99.90;;;;;;5130815;27;20102;-80
2023/05/21 03:29:54;;;;;;;13.40;6.05;;;12.80;99.90;;;;;;5129002;27;20047;-80
2023/05/21 03:32:20;;;;;;;11.60;5.80;;;12.80;99.90;;;;;;5144572;27;20050;-80
2023/05/21 03:34:46;;;;;;;11.75;5.70;;;12.80;99.90;;;;;;5131840;27;20043;-79
2023/05/21 03:37:11;;;;;;;11.27;5.72;;;12.80;99.90;;;;;;5131907;27;20337;-80
2023/05/21 03:39:37;;;;;;;14.77;6.45;;;12.80;99.90;;;;;;5132123;27;20126;-80
2023/05/21 03:42:03;;;;;;;12.35;5.72;;;12.80;99.90;;;;;;5129163;27;20395;-80
2023/05/21 03:44:31;;;;;;;10.70;5.55;;;12.80;99.90;;;;;;5131079;27;20085;-80
2023/05/21 03:46:57;;;;;;;12.98;5.90;;;12.80;99.90;;;;;;5131514;27;20055;-80
2023/05/21 03:49:23;;;;;;;10.88;5.65;;;12.80;99.90;;;;;;5115733;27;20107;-80
2023/05/21 03:51:49;;;;;;;13.55;5.35;;;12.80;99.90;;;;;;5127291;27;20098;-80
2023/05/21 03:54:15;;;;;;;12.35;5.40;;;12.80;99.90;;;;;;5131255;27;20050;-79
2023/05/21 03:56:41;;;;;;;12.70;5.93;;;12.80;99.90;;;;;;5116099;27;20043;-80
2023/05/21 03:59:06;;;;;;;15.45;5.97;;;13.00;99.90;;;;;;5112464;27;20450;-80
2023/05/21 04:01:32;;;;;;;11.18;5.22;;;12.80;99.90;;;;;;5144259;27;20439;-80
2023/05/21 04:03:58;;;;;;;15.15;5.65;;;12.80;99.90;;;;;;5115398;27;20046;-80
2023/05/21 04:06:24;;;;;;;12.32;5.72;;;12.80;99.90;;;;;;5130073;27;20043;-81
2023/05/21 04:08:50;;;;;;;9.75;4.80;;;12.80;99.90;;;;;;5131537;27;20050;-80
2023/05/21 04:11:15;;;;;;;10.85;5.45;;;12.80;99.90;;;;;;5130509;27;20039;-80
2023/05/21 04:13:41;;;;;;;13.90;5.63;;;12.90;99.90;;;;;;5128612;27;20043;-80
2023/05/21 04:16:08;;;;;;;12.05;5.50;;;12.90;99.90;;;;;;5107232;27;20047;-80
2023/05/21 04:18:34;;;;;;;15.82;5.45;;;12.90;99.90;;;;;;5128220;27;20051;-80
2023/05/21 04:21:00;;;;;;;10.82;4.82;;;12.90;99.90;;;;;;5123789;27;20416;-80
2023/05/21 04:23:26;;;;;;;11.80;5.32;;;12.90;99.90;;;;;;5137926;27;20042;-80
2023/05/21 04:25:52;;;;;;;9.65;4.75;;;12.90;99.90;;;;;;5114369;27;20082;-80
2023/05/21 04:28:18;;;;;;;11.52;4.95;;;12.90;99.90;;;;;;5128367;27;20071;-80
2023/05/21 04:30:46;;;;;;;15.95;5.38;;;12.90;99.90;;;;;;5140423;27;20504;-80
2023/05/21 04:33:16;;;;;;;13.20;4.43;;;13.00;99.90;;;;;;5141013;27;20473;-80
2023/05/21 04:35:43;;;;;;;17.95;5.10;;;13.00;99.90;;;;;;5094748;27;20125;-80
2023/05/21 04:38:09;;;;;;;13.48;4.97;;;13.00;99.90;;;;;;5093942;27;20046;-80
2023/05/21 04:40:35;;;;;;;9.23;4.45;;;13.00;99.90;;;;;;5096731;27;20054;-80
2023/05/21 04:43:00;;;;;;;12.43;5.20;;;13.10;99.90;;;;;;5127576;27;20129;-79
2023/05/21 04:45:27;;;;;;;11.93;4.60;;;13.10;99.90;;;;;;5124164;27;20039;-80
2023/05/21 04:47:52;;;;;;;13.05;4.40;;;13.10;99.90;;;;;;5122864;27;20095;-80
2023/05/21 04:50:19;;;;;;;14.98;4.38;;;13.10;99.90;;;;;;5125727;27;20405;-80
2023/05/21 04:52:45;;;;;;;11.52;4.90;;;13.20;99.90;;;;;;5114056;27;20115;-80
2023/05/21 04:55:11;;;;;;;14.63;5.25;;;13.20;99.90;;;;;;5129640;27;20043;-80
2023/05/21 04:57:37;;;;;;;14.43;4.63;;;13.20;99.90;;;;;;5126873;27;20549;-80
2023/05/21 05:00:06;;;;;;;12.50;4.40;;;13.20;99.90;;;;;;5123549;27;20131;-81
2023/05/21 05:02:31;;;;;;;15.52;5.07;;;13.20;99.90;;;;;;5110062;27;20097;-79
2023/05/21 05:04:58;;;;;;;8.85;3.88;;;13.30;99.90;;;;;;5131286;27;20454;-80
2023/05/21 05:07:24;;;;;;;10.82;4.28;;;13.30;99.90;;;;;;5112702;27;20050;-80
2023/05/21 05:09:50;;;;;;;14.35;4.53;;;13.30;99.90;;;;;;5130493;27;20042;-80
2023/05/21 05:12:15;;;;;;;13.20;4.43;;;13.40;99.90;;;;;;5126115;27;20047;-80
2023/05/21 05:14:41;;;;;;;8.88;4.32;;;13.40;99.90;;;;;;5140114;27;20397;-81
2023/05/21 05:17:08;;;;;;;11.38;4.10;;;13.50;99.90;;;;;;5112989;27;20046;-80
2023/05/21 05:19:35;;;;;;;10.68;3.80;;;13.60;99.90;;;;;;5129030;27;20057;-79
2023/05/21 05:22:01;;;;;;;8.70;4.20;;;13.70;99.90;;;;;;5127331;27;20039;-80
2023/05/21 05:24:26;;;;;;;9.30;4.45;;;13.80;99.90;;;;;;5125803;27;20125;-81
2023/05/21 05:26:52;;;;;;;11.70;4.10;;;13.90;99.90;;;;;;5112046;27;20130;-80
2023/05/21 05:29:17;;;;;;;8.85;3.92;;;13.90;99.90;;;;;;5125895;27;20057;-79
2023/05/21 05:31:43;;;;;;;11.75;4.38;;;13.90;99.90;;;;;;5134147;27;20459;-79
2023/05/21 05:34:09;;;;;;;9.15;3.70;;;13.90;99.90;;;;;;5113774;27;20050;-80
2023/05/21 05:36:35;;;;;;;14.80;4.30;;;13.90;99.90;;;;;;5137800;27;20462;-78
2023/05/21 05:39:00;;;;;;;11.98;3.70;;;14.00;99.90;;;;;;5126559;27;20046;-79
2023/05/21 05:41:26;;;;;;;15.23;3.92;;;14.00;99.90;;;;;;5118556;27;20099;-80
2023/05/21 05:43:51;;;;;;;13.15;3.80;;;14.00;99.90;;;;;;5115900;27;20394;-80
2023/05/21 05:46:17;;;;;;;13.43;3.95;;;14.10;99.90;;;;;;5130816;27;20315;-80
2023/05/21 05:48:43;;;;;;;8.82;4.07;;;14.10;99.90;;;;;;5113830;27;20050;-80
2023/05/21 05:51:10;;;;;;;11.13;3.78;;;14.20;99.90;;;;;;5130950;27;20263;-80
2023/05/21 05:53:36;;;;;;;11.27;3.75;;;14.20;99.90;;;;;;5108819;27;20043;-80
2023/05/21 05:56:02;;;;;;;8.23;3.85;;;14.20;99.90;;;;;;5121671;27;20086;-80
2023/05/21 05:58:29;;;;;;;9.55;4.03;;;14.30;99.90;;;;;;5112908;27;20081;-79
2023/05/21 06:00:55;;;;;;;8.80;3.85;;;14.30;99.90;;;;;;5109587;28;20043;-80
2023/05/21 06:03:20;;;;;;;8.02;3.75;;;14.30;99.90;;;;;;5123996;27;20035;-80
2023/05/21 06:05:46;;;;;;;11.07;3.88;;;14.30;99.90;;;;;;5110344;28;20181;-80
2023/05/21 06:08:12;;;;;;;8.85;3.45;;;14.30;99.90;;;;;;5122502;27;20038;-80
2023/05/21 06:10:38;;;;;;;13.93;3.40;;;14.40;99.90;;;;;;5109606;28;20047;-80
2023/05/21 06:13:03;;;;;;;11.02;4.30;;;14.40;99.90;;;;;;5122701;27;20046;-80
2023/05/21 06:15:29;;;;;;;9.73;3.80;;;14.40;99.90;;;;;;5114425;28;20065;-80
2023/05/21 06:17:55;;;;;;;10.57;3.67;;;14.40;99.90;;;;;;5122218;28;20101;-80
2023/05/21 06:20:21;;;;;;;11.48;3.95;;;14.50;99.90;;;;;;5117879;27;20061;-79
2023/05/21 06:22:46;;;;;;;9.07;3.78;;;14.50;99.90;;;;;;5121455;27;20496;-80
2023/05/21 06:25:12;;;;;;;8.98;4.30;;;14.60;99.90;;;;;;5119264;27;20130;-80
2023/05/21 06:27:38;;;;;;;9.40;4.03;;;14.60;99.90;;;;;;5115119;27;20039;-79
2023/05/21 06:30:04;;;;;;;11.90;4.13;;;14.60;99.90;;;;;;5129862;27;20099;-80
2023/05/21 06:32:30;;;;;;;12.35;4.05;;;14.70;99.90;;;;;;5126314;27;20364;-79
2023/05/21 06:34:56;;;;;;;9.25;3.78;;;14.70;99.90;;;;;;5132300;27;20046;-79
2023/05/21 06:37:21;;;;;;;12.25;4.20;;;14.70;99.90;;;;;;5128122;27;20039;-80
2023/05/21 06:39:47;;;;;;;9.57;3.90;;;14.80;99.90;;;;;;5132118;27;20039;-80
2023/05/21 06:42:13;;;;;;;11.10;4.05;;;14.80;99.90;;;;;;5129916;27;20046;-80
2023/05/21 06:44:39;;;;;;;9.82;3.90;;;14.90;99.90;;;;;;5125102;27;20584;-80
2023/05/21 06:47:05;;;;;;;12.60;3.75;;;14.90;99.90;;;;;;5127564;27;20431;-81
2023/05/21 06:49:31;;;;;;;11.20;4.95;;;15.00;99.90;;;;;;5123199;27;20082;-80
2023/05/21 06:51:57;;;;;;;14.13;4.18;;;15.00;99.90;;;;;;5126130;27;20043;-80
2023/05/21 06:54:22;;;;;;;19.90;4.55;;;15.10;99.90;;;;;;5126267;27;20465;-80
2023/05/21 06:56:48;;;;;;;10.43;3.72;;;15.20;99.90;;;;;;5125620;27;20043;-80
2023/05/21 06:59:14;;;;;;;18.60;4.18;;;15.30;99.90;;;;;;5125026;27;20048;-80
2023/05/21 07:01:41;;;;;;;10.73;3.88;;;15.30;99.90;;;;;;5107186;27;20047;-80
2023/05/21 07:04:08;;;;;;;9.25;3.85;;;15.50;99.90;;;;;;5111970;27;20057;-80
2023/05/21 07:06:34;;;;;;;11.27;3.65;;;15.50;99.90;;;;;;5130495;27;20078;-81
2023/05/21 07:09:01;;;;;;;11.07;4.20;;;15.50;99.90;;;;;;5126506;27;20123;-80
2023/05/21 07:11:27;;;;;;;14.25;3.97;;;15.50;99.90;;;;;;5126022;27;20493;-80
2023/05/21 07:13:55;;;;;;;10.98;3.47;;;15.50;99.90;;;;;;5126205;27;20462;-80
2023/05/21 07:16:21;;;;;;;11.18;3.70;;;15.60;99.90;;;;;;5125658;27;20405;-80
2023/05/21 07:18:47;;;;;;;14.15;3.97;;;15.70;99.90;;;;;;5124166;28;20062;-80
2023/05/21 07:21:12;;;;;;;17.48;3.78;;;15.80;99.90;;;;;;5124822;28;20583;-80
2023/05/21 07:23:38;;;;;;;10.65;3.83;;;15.90;99.90;;;;;;5128052;28;20099;-80
2023/05/21 07:26:04;;;;;;;10.32;3.83;;;16.00;99.90;;;;;;5106995;28;20045;-79
2023/05/21 07:28:30;;;;;;;10.68;4.45;;;16.00;99.90;;;;;;5107440;28;20059;-79
2023/05/21 07:30:56;;;;;;;12.27;4.45;;;16.00;99.90;;;;;;5108134;28;20547;-80
2023/05/21 07:33:21;;;;;;;8.80;3.63;;;16.10;99.90;;;;;;5106459;28;20051;-79
2023/05/21 07:35:47;;;;;;;11.05;3.83;;;16.10;99.90;;;;;;5124563;28;20673;-79
2023/05/21 07:38:13;;;;;;;11.52;3.85;;;16.20;99.90;;;;;;5128766;28;20036;-79
2023/05/21 07:40:39;;;;;;;7.57;3.03;;;16.20;99.90;;;;;;5125249;28;20427;-79
2023/05/21 07:43:05;;;;;;;11.95;3.00;;;16.30;99.90;;;;;;5109921;28;20076;-80
2023/05/21 07:45:30;;;;;;;9.30;3.22;;;16.40;99.90;;;;;;5122383;28;20460;-80
2023/05/21 07:47:56;;;;;;;8.88;3.45;;;16.50;99.90;;;;;;5125477;28;20501;-79
2023/05/21 07:50:22;;;;;;;10.25;3.35;;;16.50;99.90;;;;;;5124363;28;20054;-79
2023/05/21 07:52:47;;;;;;;9.95;3.30;;;16.60;99.90;;;;;;5127902;28;20095;-79
2023/05/21 07:55:13;;;;;;;10.40;2.97;;;16.60;99.90;;;;;;5098545;28;20043;-80
2023/05/21 07:57:39;;;;;;;7.40;3.22;;;16.60;99.90;;;;;;5107574;28;20431;-79
2023/05/21 08:00:08;;;;;;;12.75;3.20;;;16.60;99.90;;;;;;5123411;28;20055;-80
2023/05/21 08:02:34;;;;;;;9.90;3.42;;;16.70;99.90;;;;;;5096270;28;20117;-79
2023/05/21 08:05:00;;;;;;;10.82;3.80;;;16.60;99.90;;;;;;5117311;28;20047;-80
2023/05/21 08:07:26;;;;;;;8.40;3.30;;;16.70;99.90;;;;;;5125528;28;20055;-80
2023/05/21 08:09:53;;;;;;;8.68;3.90;;;16.70;99.90;;;;;;5124901;28;20047;-80
2023/05/21 08:12:19;;;;;;;8.38;3.42;;;16.80;99.90;;;;;;5123864;28;20074;-80
2023/05/21 08:14:44;;;;;;;8.40;3.28;;;16.80;99.90;;;;;;5105084;28;20046;-79
2023/05/21 08:17:10;;;;;;;10.88;3.55;;;16.90;99.90;;;;;;5079177;27;1075893;-79
2023/05/21 08:19:36;;;;;;;12.35;3.33;;;16.90;99.90;;;;;;5127944;27;20035;-79
2023/05/21 08:22:02;;;;;;;7.18;3.38;;;16.90;99.90;;;;;;5115744;27;20423;-79
2023/05/21 08:24:28;;;;;;;10.63;3.35;;;17.10;99.90;;;;;;5124203;27;20047;-80
2023/05/21 08:26:53;;;;;;;6.57;2.83;;;17.10;99.90;;;;;;5129475;27;20105;-79
2023/05/21 08:29:20;;;;;;;13.65;3.38;;;17.10;99.90;;;;;;5122584;27;20508;-79
2023/05/21 08:31:45;;;;;;;10.68;3.20;;;17.20;99.90;;;;;;5122368;27;20347;-80
2023/05/21 08:34:11;;;;;;;10.18;3.33;;;17.20;99.90;;;;;;5116715;27;20045;-79
2023/05/21 08:36:37;;;;;;;9.63;3.15;;;17.20;99.90;;;;;;5128504;27;20472;-79
2023/05/21 08:39:03;;;;;;;9.40;3.00;;;17.30;99.90;;;;;;5127476;27;20394;-79
2023/05/21 08:41:30;;;;;;;8.45;2.72;;;17.40;99.90;;;;;;5121156;27;20072;-80
2023/05/21 08:43:56;;;;;;;11.35;3.40;;;17.50;99.90;;;;;;5126306;27;20157;-79
2023/05/21 08:46:24;;;;;;;11.57;3.60;;;17.50;99.90;;;;;;5123228;27;20046;-79
2023/05/21 08:48:53;;;;;;;9.48;3.35;;;17.60;99.90;;;;;;5125521;27;20051;-79
2023/05/21 08:51:20;;;;;;;9.40;2.70;;;17.60;99.90;;;;;;5126727;27;20047;-79
2023/05/21 08:53:48;;;;;;;9.38;3.08;;;17.60;99.90;;;;;;5109932;27;20084;-80
2023/05/21 08:56:16;;;;;;;9.70;3.40;;;17.60;99.90;;;;;;5118072;27;20454;-80
2023/05/21 08:58:45;;;;;;;10.93;3.13;;;17.50;99.90;;;;;;5107062;27;20071;-80
2023/05/21 09:01:11;;;;;;;7.32;3.00;;;17.50;99.90;;;;;;5118480;27;20142;-80
2023/05/21 09:03:39;;;;;;;10.80;3.25;;;17.50;99.90;;;;;;5123281;27;20047;-80
2023/05/21 09:06:09;;;;;;;14.52;3.38;;;17.60;99.90;;;;;;5115793;27;20487;-80
2023/05/21 09:08:41;;;;;;;7.47;2.85;;;17.60;99.90;;;;;;5122978;27;20491;-80
2023/05/21 09:11:07;;;;;;;7.68;2.75;;;17.70;99.90;;;;;;5115890;27;20054;-80
2023/05/21 09:13:34;;;;;;;10.90;2.92;;;17.70;99.90;;;;;;5126634;27;20035;-80
2023/05/21 09:15:59;;;;;;;10.10;3.50;;;17.90;99.90;;;;;;5123507;27;20051;-81
2023/05/21 09:18:26;;;;;;;11.25;2.80;;;18.00;99.90;;;;;;5126317;27;20050;-81
2023/05/21 09:20:52;;;;;;;7.82;2.78;;;18.10;99.90;;;;;;5123984;27;20073;-81
2023/05/21 09:23:19;;;;;;;8.18;2.75;;;18.10;99.90;;;;;;5129290;27;20050;-80
2023/05/21 09:25:46;;;;;;;8.93;2.63;;;18.10;99.90;;;;;;5105496;27;20483;-80
2023/05/21 09:28:13;;;;;;;9.68;5.28;;;18.10;99.90;;;;;;5123719;27;20058;-80
2023/05/21 09:30:48;;;;;;;9.70;2.85;;;18.10;99.90;;;;;;5117033;27;20043;-80
2023/05/21 09:33:24;;;;;;;11.10;2.78;;;18.10;99.90;;;;;;5125941;27;20141;-80
2023/05/21 09:35:50;;;;;;;9.65;2.78;;;18.30;99.90;;;;;;5128547;27;20371;-81
2023/05/21 09:38:16;;;;;;;11.15;2.75;;;18.50;99.90;;;;;;5123443;27;20490;-81
2023/05/21 09:40:45;;;;;;;10.75;2.60;;;18.60;99.90;;;;;;5121568;27;20047;-80
2023/05/21 09:43:15;;;;;;;8.40;2.67;;;18.80;99.90;;;;;;5126587;27;20043;-81
2023/05/21 09:45:51;;;;;;;8.50;2.80;;;18.90;99.90;;;;;;5122574;27;20043;-81
2023/05/21 09:48:31;;;;;;;12.73;3.45;;;19.10;99.90;;;;;;5119900;27;20035;-80
2023/05/21 09:51:08;;;;;;;6.07;2.63;;;19.10;99.90;;;;;;5092739;28;20048;-81
2023/05/21 09:53:34;;;;;;;9.25;3.25;;;19.20;99.90;;;;;;5116522;27;20404;-80
2023/05/21 09:56:00;;;;;;;8.90;2.60;;;19.20;99.90;;;;;;5127606;27;20122;-80
2023/05/21 09:58:26;;;;;;;7.97;3.53;;;19.10;99.90;;;;;;5127500;27;20134;-80
2023/05/21 10:00:51;;;;;;;6.03;2.33;;;19.10;99.90;;;;;;5126706;27;20039;-80
2023/05/21 10:03:22;;;;;;;7.35;2.65;;;19.20;99.90;;;;;;5109078;27;20045;-80
2023/05/21 10:05:52;;;;;;;8.25;2.47;;;19.20;99.90;;;;;;5122757;27;20123;-80
2023/05/21 10:08:20;;;;;;;9.52;2.42;;;19.40;99.90;;;;;;5118758;28;20048;-80
2023/05/21 10:10:48;;;;;;;9.55;2.75;;;19.30;99.90;;;;;;5116410;28;20054;-80
2023/05/21 10:13:17;;;;;;;11.05;2.88;;;19.30;99.90;;;;;;5123144;28;20112;-80
2023/05/21 10:15:46;;;;;;;9.07;2.42;;;19.40;99.90;;;;;;5116675;28;20409;-80
2023/05/21 10:18:12;;;;;;;7.53;2.67;;;19.50;99.90;;;;;;5122408;28;20058;-80
2023/05/21 10:20:39;;;;;;;11.40;2.92;;;19.50;99.90;;;;;;5113752;28;20048;-80
2023/05/21 10:23:05;;;;;;;6.80;3.15;;;19.60;99.90;;;;;;5123963;28;20525;-80
2023/05/21 10:25:31;;;;;;;8.75;2.28;;;19.60;99.90;;;;;;5087897;28;20580;-80
2023/05/21 10:27:57;;;;;;;10.93;2.63;;;19.70;99.90;;;;;;5106867;28;20036;-80
2023/05/21 10:30:24;;;;;;;9.32;3.10;;;19.80;99.90;;;;;;5114213;28;20040;-80
2023/05/21 10:32:50;;;;;;;9.45;2.70;;;19.80;99.90;;;;;;5120707;28;20059;-82
2023/05/21 10:35:16;;;;;;;10.20;2.78;;;19.90;99.90;;;;;;5113988;28;20113;-81
2023/05/21 10:37:44;;;;;;;10.88;2.65;;;20.00;99.90;;;;;;5111147;28;20106;-82
2023/05/21 10:40:11;;;;;;;8.25;2.65;;;20.00;99.90;;;;;;5105560;28;20058;-83
2023/05/21 10:43:05;;;;;;;12.98;3.45;;;20.00;99.90;;;;;;5117301;28;20074;-81
2023/05/21 10:45:38;;;;;;;10.35;2.88;;;20.00;99.90;;;;;;5098877;28;20039;-81
2023/05/21 10:48:10;;;;;;;8.10;2.88;;;20.00;99.90;;;;;;5118254;28;20131;-81
2023/05/21 10:50:58;;;;;;;6.85;2.70;;;20.00;99.90;;;;;;5121412;28;20490;-81
2023/05/21 10:53:37;;;;;;;10.13;3.25;;;20.00;99.90;;;;;;5108886;28;20091;-81
2023/05/21 10:56:29;;;;;;;15.23;3.03;;;19.80;99.90;;;;;;5115258;28;20131;-81
2023/05/21 10:59:07;;;;;;;7.65;2.83;;;19.80;99.90;;;;;;5107340;28;20111;-81
2023/05/21 11:01:36;;;;;;;9.82;3.08;;;19.70;99.90;;;;;;5114145;28;20044;-81
2023/05/21 11:04:04;;;;;;;13.05;3.53;;;19.70;99.90;;;;;;5094444;28;20179;-81
2023/05/21 11:06:30;;;;;;;12.10;3.58;;;19.50;99.90;;;;;;5103149;27;20150;-81
2023/05/21 11:09:01;;;;;;;6.95;2.70;;;19.50;99.90;;;;;;5112226;27;20050;-81
2023/05/21 11:11:48;;;;;;;8.18;3.72;;;19.50;99.90;;;;;;5122205;27;20050;-80
2023/05/21 11:14:31;;;;;;;11.68;3.80;;;19.50;99.90;;;;;;5126879;27;20046;-81
2023/05/21 11:16:58;;;;;;;8.35;3.50;;;19.50;99.90;;;;;;5133316;27;20142;-81
2023/05/21 11:19:35;;;;;;;10.02;3.60;;;19.60;99.90;;;;;;5098036;28;20044;-81
2023/05/21 11:22:05;;;;;;;9.65;3.38;;;19.80;99.90;;;;;;5091582;28;20604;-81
2023/05/21 11:24:32;;;;;;;11.10;4.75;;;20.00;99.90;;;;;;5109209;27;20047;-81
2023/05/21 11:27:01;;;;;;;9.98;3.97;;;20.10;99.90;;;;;;5105238;27;20122;-81
2023/05/21 11:29:39;;;;;;;13.40;3.83;;;20.10;99.90;;;;;;5091132;28;20043;-81
2023/05/21 11:32:07;;;;;;;12.45;4.10;;;20.10;99.90;;;;;;5104241;28;20040;-81
2023/05/21 11:34:40;;;;;;;8.77;3.78;;;20.10;99.90;;;;;;5118594;27;20043;-82
2023/05/21 11:37:15;;;;;;;8.98;3.83;;;20.10;99.90;;;;;;5098082;27;20028;-81
2023/05/21 11:39:42;;;;;;;15.20;4.05;;;20.10;99.90;;;;;;5115202;27;20063;-81
2023/05/21 11:42:08;;;;;;;12.25;4.38;;;20.10;99.90;;;;;;5109624;28;20544;-81
2023/05/21 11:44:38;;;;;;;10.57;4.88;;;20.00;99.90;;;;;;5107483;28;20051;-81
2023/05/21 11:47:05;;;;;;;10.10;4.68;;;20.10;99.90;;;;;;5089985;28;20164;-82
2023/05/21 11:49:31;;;;;;;15.60;4.93;;;20.00;99.90;;;;;;5091033;28;20043;-82
2023/05/21 11:52:02;;;;;;;13.48;4.65;;;19.90;99.90;;;;;;5108456;28;20130;-81
2023/05/21 11:54:32;;;;;;;13.80;4.82;;;19.90;99.90;;;;;;5107347;28;20126;-80
2023/05/21 11:57:00;;;;;;;12.75;4.93;;;19.90;99.90;;;;;;5108262;28;20100;-81
2023/05/21 11:59:26;;;;;;;9.27;5.50;;;19.80;99.90;;;;;;5090232;28;20064;-80
2023/05/21 12:01:52;;;;;;;10.63;4.70;;;19.80;99.90;;;;;;5104775;28;20066;-80
2023/05/21 12:04:18;;;;;;;12.65;5.00;;;19.80;99.90;;;;;;5084081;28;20043;-80
2023/05/21 12:06:44;;;;;;;10.98;4.90;;;19.60;99.90;;;;;;5104096;28;20043;-80
2023/05/21 12:09:10;;;;;;;13.23;5.45;;;19.60;99.90;;;;;;5104807;28;20135;-80
2023/05/21 12:11:39;;;;;;;9.27;5.35;;;19.50;99.90;;;;;;5109657;28;20047;-80
2023/05/21 12:14:08;;;;;;;11.32;5.82;;;19.50;99.90;;;;;;5107500;28;20347;-81
2023/05/21 12:16:34;;;;;;;15.65;6.28;;;19.50;99.90;;;;;;5112395;27;20051;-81
2023/05/21 12:19:01;;;;;;;17.63;5.95;;;19.60;99.90;;;;;;5127079;27;20047;-81
2023/05/21 12:21:28;;;;;;;12.77;6.63;;;19.70;99.90;;;;;;5106609;28;20043;-81
2023/05/21 12:23:54;;;;;;;16.75;5.60;;;19.90;99.90;;;;;;5124751;27;20058;-81
2023/05/21 12:26:20;;;;;;;10.75;5.40;;;20.00;99.90;;;;;;5126064;27;20147;-81
2023/05/21 12:28:47;;;;;;;15.45;6.07;;;20.00;99.90;;;;;;5124392;27;20067;-80
2023/05/21 12:31:15;;;;;;;16.10;6.28;;;20.20;99.90;;;;;;5103655;27;20043;-81
2023/05/21 12:33:46;;;;;;;13.93;5.85;;;20.30;99.90;;;;;;5107425;27;20126;-81
2023/05/21 12:36:25;;;;;;;13.25;5.47;;;20.10;99.90;;;;;;5123681;27;20048;-81
2023/05/21 12:38:51;;;;;;;15.50;5.55;;;20.10;99.90;;;;;;5124305;27;20063;-81
2023/05/21 12:41:17;;;;;;;12.60;5.95;;;20.10;99.90;;;;;;5126333;27;20394;-81